createdAt,value
2019-02-26T00:04:54.085Z,16.80
2019-02-26T00:10:02.569Z,15.97
2019-02-26T00:15:12.853Z,16.60
2019-02-26T00:20:19.504Z,15.40
2019-02-26T00:25:26.382Z,15.57
2019-02-26T00:30:35.583Z,15.43
2019-02-26T00:35:42.171Z,15.97
2019-02-26T00:40:49.258Z,16.07
2019-02-26T00:45:58.290Z,15.80
2019-02-26T00:51:04.457Z,15.93
2019-02-26T00:56:11.765Z,16.27
2019-02-26T01:01:21.195Z,15.90
2019-02-26T01:06:29.429Z,16.00
2019-02-26T01:11:37.169Z,15.77
2019-02-26T01:16:45.940Z,15.10
2019-02-26T01:21:52.715Z,14.97
2019-02-26T01:26:59.728Z,14.27
2019-02-26T01:32:08.897Z,15.17
2019-02-26T01:37:28.218Z,14.73
2019-02-26T01:42:36.688Z,14.23
2019-02-26T01:47:46.229Z,13.80
2019-02-26T01:52:52.344Z,13.90
2019-02-26T01:57:59.882Z,13.33
2019-02-26T02:03:06.824Z,14.27
2019-02-26T02:08:32.070Z,13.20
2019-02-26T02:13:41.433Z,14.37
2019-02-26T02:18:48.841Z,14.20
2019-02-26T02:23:55.016Z,13.37
2019-02-26T02:29:24.530Z,14.43
2019-02-26T02:34:32.974Z,13.50
2019-02-26T02:39:40.262Z,14.30
2019-02-26T02:44:46.898Z,12.53
2019-02-26T02:49:55.446Z,12.50
2019-02-26T02:55:04.403Z,10.87
2019-02-26T03:00:16.047Z,11.90
2019-02-26T03:05:23.327Z,11.53
2019-02-26T03:10:31.690Z,12.53
2019-02-26T03:15:38.664Z,12.57
2019-02-26T03:20:44.723Z,12.03
2019-02-26T03:25:52.890Z,12.33
2019-02-26T03:30:59.040Z,11.00
2019-02-26T03:36:07.941Z,11.93
2019-02-26T03:41:13.805Z,11.60
2019-02-26T03:46:20.318Z,12.40
2019-02-26T03:51:26.830Z,11.87
2019-02-26T03:56:33.768Z,11.53
2019-02-26T04:01:40.640Z,11.73
2019-02-26T04:06:47.224Z,11.10
2019-02-26T04:11:55.420Z,10.57
2019-02-26T04:17:04.134Z,10.77
2019-02-26T04:22:30.642Z,10.60
2019-02-26T04:27:51.416Z,10.70
2019-02-26T04:33:53.711Z,11.03
2019-02-26T04:39:34.487Z,11.40
2019-02-26T04:45:24.734Z,11.93
2019-02-26T04:50:44.574Z,12.27
2019-02-26T04:55:51.861Z,12.10
2019-02-26T05:00:58.453Z,12.27
2019-02-26T05:06:07.857Z,11.20
2019-02-26T05:11:17.449Z,12.93
2019-02-26T05:16:26.051Z,12.53
2019-02-26T05:21:31.905Z,13.40
2019-02-26T05:26:38.135Z,11.70
2019-02-26T05:31:44.133Z,11.80
2019-02-26T05:36:50.092Z,10.27
2019-02-26T05:42:00.213Z,10.87
2019-02-26T05:47:05.092Z,11.80
2019-02-26T05:52:13.124Z,10.93
2019-02-26T05:57:27.631Z,11.23
2019-02-26T06:02:29.360Z,11.83
2019-02-26T06:07:38.584Z,11.03
2019-02-26T06:12:46.631Z,11.13
2019-02-26T06:17:53.496Z,11.23
2019-02-26T06:23:00.118Z,11.27
2019-02-26T06:28:07.707Z,11.37
2019-02-26T06:33:16.396Z,11.40
2019-02-26T06:38:25.867Z,11.97
2019-02-26T06:43:35.486Z,13.77
2019-02-26T06:48:40.716Z,12.93
2019-02-26T06:53:49.260Z,12.30
2019-02-26T06:58:55.258Z,12.57
2019-02-26T07:04:01.982Z,13.27
2019-02-26T07:09:10.832Z,13.37
2019-02-26T07:14:17.326Z,11.63
2019-02-26T07:19:25.870Z,12.10
2019-02-26T07:25:07.842Z,13.30
2019-02-26T07:30:14.781Z,12.83
2019-02-26T07:35:22.414Z,12.67
2019-02-26T07:40:30.567Z,12.80
2019-02-26T07:45:37.726Z,11.57
2019-02-26T07:50:46.336Z,13.50
2019-02-26T07:55:53.951Z,15.80
2019-02-26T08:01:00.862Z,14.03
2019-02-26T08:06:09.790Z,18.23
2019-02-26T08:11:17.178Z,21.07
2019-02-26T08:16:25.815Z,14.60
2019-02-26T08:21:32.608Z,16.20
2019-02-26T08:26:40.536Z,13.67
2019-02-26T08:31:49.380Z,11.23
2019-02-26T08:36:55.470Z,11.23
2019-02-26T08:42:10.072Z,12.83
2019-02-26T08:47:19.245Z,14.70
2019-02-26T08:52:26.914Z,14.17
2019-02-26T08:57:33.890Z,12.63
2019-02-26T09:02:59.548Z,13.57
2019-02-26T09:08:08.383Z,13.17
2019-02-26T09:13:16.387Z,15.70
2019-02-26T09:18:27.439Z,15.87
2019-02-26T09:23:33.476Z,17.10
2019-02-26T09:28:41.855Z,18.73
2019-02-26T09:33:49.259Z,19.17
2019-02-26T09:38:55.227Z,20.23
2019-02-26T09:44:04.187Z,20.97
2019-02-26T09:49:12.468Z,21.23
2019-02-26T09:54:40.288Z,19.30
2019-02-26T09:59:45.529Z,19.07
2019-02-26T10:04:51.896Z,19.93
2019-02-26T10:10:01.163Z,19.47
2019-02-26T10:15:12.617Z,19.10
2019-02-26T10:20:31.685Z,18.23
2019-02-26T10:25:38.890Z,19.17
2019-02-26T10:30:45.013Z,18.47
2019-02-26T10:35:51.039Z,18.10
2019-02-26T10:40:59.185Z,17.07
2019-02-26T10:46:06.994Z,17.90
2019-02-26T10:51:16.883Z,18.00
2019-02-26T10:56:23.625Z,18.73
2019-02-26T11:01:31.534Z,18.70
2019-02-26T11:06:43.753Z,16.33
2019-02-26T11:11:50.382Z,15.90
2019-02-26T11:16:57.622Z,16.00
2019-02-26T11:22:05.987Z,15.67
2019-02-26T11:27:14.189Z,16.13
2019-02-26T11:32:20.945Z,15.13
2019-02-26T11:37:29.528Z,14.00
2019-02-26T11:42:37.526Z,12.77
2019-02-26T11:47:45.143Z,13.63
2019-02-26T11:52:54.287Z,13.33
2019-02-26T11:57:59.739Z,13.20
2019-02-26T12:03:06.782Z,12.67
2019-02-26T12:08:16.715Z,12.90
2019-02-26T12:13:27.631Z,12.67
2019-02-26T12:18:34.256Z,10.13
2019-02-26T12:23:44.132Z,10.30
2019-02-26T12:28:49.771Z,10.13
2019-02-26T12:33:57.763Z,11.07
2019-02-26T12:39:07.211Z,11.40
2019-02-26T12:44:16.259Z,10.63
2019-02-26T12:49:23.334Z,9.70
2019-02-26T12:54:33.567Z,12.23
2019-02-26T12:59:39.627Z,12.40
2019-02-26T13:04:48.067Z,12.03
2019-02-26T13:09:56.098Z,12.63
2019-02-26T13:15:05.438Z,13.53
2019-02-26T13:20:22.525Z,15.23
2019-02-26T13:25:29.717Z,13.87
2019-02-26T13:30:37.595Z,14.03
2019-02-26T13:35:46.914Z,13.20
2019-02-26T13:41:02.278Z,13.20
2019-02-26T13:46:03.058Z,13.53
2019-02-26T13:51:10.024Z,11.00
2019-02-26T13:56:17.107Z,12.20
2019-02-26T14:01:24.138Z,11.97
2019-02-26T14:06:32.055Z,11.80
2019-02-26T14:11:41.198Z,11.43
2019-02-26T14:16:48.780Z,12.77
2019-02-26T14:21:57.537Z,12.70
2019-02-26T14:27:06.033Z,12.60
2019-02-26T14:32:17.386Z,13.43
2019-02-26T14:37:28.508Z,12.53
2019-02-26T14:48:31.559Z,13.37
2019-02-26T14:54:06.465Z,13.47
2019-02-26T14:59:15.099Z,13.03
2019-02-26T15:04:41.529Z,12.47
2019-02-26T15:09:48.533Z,11.53
2019-02-26T15:14:56.357Z,13.00
2019-02-26T15:20:04.800Z,12.20
2019-02-26T15:25:20.502Z,13.23
2019-02-26T15:30:27.746Z,12.80
2019-02-26T15:35:34.835Z,12.53
2019-02-26T15:40:43.879Z,12.43
2019-02-26T15:45:52.160Z,12.67
2019-02-26T15:50:59.864Z,14.13
2019-02-26T15:56:08.003Z,13.27
2019-02-26T16:01:16.565Z,12.17
2019-02-26T16:06:22.617Z,13.13
2019-02-26T16:11:30.701Z,12.50
2019-02-26T16:16:37.829Z,11.97
2019-02-26T16:21:45.458Z,12.10
2019-02-26T16:26:52.362Z,11.97
2019-02-26T16:31:59.411Z,11.90
2019-02-26T16:37:07.884Z,12.33
2019-02-26T16:42:15.226Z,12.73
2019-02-26T16:47:22.770Z,15.23
2019-02-26T16:52:30.466Z,13.47
2019-02-26T16:57:37.678Z,13.10
2019-02-26T17:02:44.910Z,13.83
2019-02-26T17:07:51.409Z,13.87
2019-02-26T17:13:05.607Z,14.63
2019-02-26T17:18:12.506Z,13.70
2019-02-26T17:23:20.711Z,13.63
2019-02-26T17:28:28.269Z,14.23
2019-02-26T17:33:35.752Z,13.03
2019-02-26T17:44:17.122Z,12.40
2019-02-26T17:49:33.652Z,12.20
2019-02-26T17:54:49.913Z,12.80
2019-02-26T17:59:58.282Z,13.53
2019-02-26T18:05:07.586Z,12.50
2019-02-26T18:10:18.474Z,14.50
2019-02-26T18:15:26.993Z,14.37
2019-02-26T18:26:32.257Z,15.57
2019-02-26T18:31:40.686Z,14.97
2019-02-26T18:36:47.343Z,15.17
2019-02-26T18:41:54.727Z,15.43
2019-02-26T18:47:06.778Z,16.27
2019-02-26T18:52:11.833Z,16.57
2019-02-26T18:57:18.694Z,17.47
2019-02-26T19:02:25.937Z,16.97
2019-02-26T19:07:33.796Z,18.33
2019-02-26T19:12:41.078Z,17.37
2019-02-26T19:17:50.278Z,16.70
2019-02-26T19:22:58.788Z,16.60
2019-02-26T19:28:05.497Z,15.90
2019-02-26T19:33:13.156Z,15.17
2019-02-26T19:38:20.965Z,15.67
2019-02-26T19:43:28.922Z,15.03
2019-02-26T19:48:36.493Z,14.80
2019-02-26T19:53:43.082Z,13.13
2019-02-26T19:58:49.414Z,12.73
2019-02-26T20:03:55.554Z,13.10
2019-02-26T20:09:05.807Z,13.47
2019-02-26T20:14:14.776Z,14.90
2019-02-26T20:19:22.555Z,18.27
2019-02-26T20:24:30.490Z,20.37
2019-02-26T20:29:40.155Z,20.73
2019-02-26T20:34:46.150Z,21.40
2019-02-26T20:39:52.158Z,21.87
2019-02-26T20:44:59.099Z,22.47
2019-02-26T20:50:10.210Z,24.83
2019-02-26T20:55:21.176Z,26.90
2019-02-26T21:00:28.129Z,26.20
2019-02-26T21:05:35.320Z,25.97
2019-02-26T21:10:42.445Z,25.03
2019-02-26T21:15:48.975Z,25.57
2019-02-26T21:20:56.774Z,24.63
2019-02-26T21:26:03.506Z,24.57
2019-02-26T21:31:09.520Z,23.73
2019-02-26T21:36:18.256Z,21.87
2019-02-26T21:41:25.121Z,21.50
2019-02-26T21:46:32.042Z,22.57
2019-02-26T21:51:38.952Z,21.60
2019-02-26T21:56:48.707Z,20.87
2019-02-26T22:02:18.593Z,22.43
2019-02-26T22:07:23.432Z,22.67
2019-02-26T22:12:30.239Z,24.83
2019-02-26T22:17:37.491Z,25.10
2019-02-26T22:22:44.149Z,25.43
2019-02-26T22:27:51.651Z,26.13
2019-02-26T22:32:57.596Z,25.33
2019-02-26T22:38:03.601Z,25.70
2019-02-26T22:43:13.413Z,26.90
2019-02-26T22:48:17.449Z,26.93
2019-02-26T22:53:23.662Z,28.17
2019-02-26T22:58:29.663Z,27.23
2019-02-26T23:03:37.425Z,26.67
2019-02-26T23:08:44.748Z,27.20
2019-02-26T23:13:54.200Z,26.60
2019-02-26T23:19:03.819Z,26.80
2019-02-26T23:24:11.444Z,27.93
2019-02-26T23:29:19.077Z,27.53
2019-02-26T23:34:25.062Z,27.80
2019-02-26T23:39:31.214Z,25.77
2019-02-26T23:44:57.194Z,25.87
2019-02-26T23:50:05.153Z,26.30
2019-02-26T23:55:33.915Z,25.93
